sensor_id;sensor_type;location;lat;lon;timestamp;pressure;altitude;pressure_sealevel;temperature;humidity
61408;BME280;47274;43.054;25.146;2022-10-22T00:01:32;96264.66;;;8.19;70.12
61408;BME280;47274;43.054;25.146;2022-10-22T00:03:58;96239.47;;;8.14;70.16
61408;BME280;47274;43.054;25.146;2022-10-22T00:06:27;96242.72;;;8.27;69.54
61408;BME280;47274;43.054;25.146;2022-10-22T00:08:52;96238.66;;;8.25;69.22
61408;BME280;47274;43.054;25.146;2022-10-22T00:11:19;96214.91;;;8.12;69.62
61408;BME280;47274;43.054;25.146;2022-10-22T00:13:45;96226.31;;;8.30;67.99
61408;BME280;47274;43.054;25.146;2022-10-22T00:16:11;96223.44;;;8.35;65.85
61408;BME280;47274;43.054;25.146;2022-10-22T00:18:38;96228.09;;;8.41;65.47
61408;BME280;47274;43.054;25.146;2022-10-22T00:21:05;96202.28;;;8.32;65.32
61408;BME280;47274;43.054;25.146;2022-10-22T00:23:32;96224.41;;;8.45;66.04
61408;BME280;47274;43.054;25.146;2022-10-22T00:25:58;96221.38;;;8.51;66.48
61408;BME280;47274;43.054;25.146;2022-10-22T00:28:24;96157.16;;;8.20;66.30
61408;BME280;47274;43.054;25.146;2022-10-22T00:30:57;96221.03;;;8.56;65.42
61408;BME280;47274;43.054;25.146;2022-10-22T00:33:24;96182.28;;;8.26;66.31
61408;BME280;47274;43.054;25.146;2022-10-22T00:35:50;96217.41;;;8.47;66.46
61408;BME280;47274;43.054;25.146;2022-10-22T00:38:16;96207.97;;;8.36;67.31
61408;BME280;47274;43.054;25.146;2022-10-22T00:40:42;96188.53;;;8.34;66.71
61408;BME280;47274;43.054;25.146;2022-10-22T00:43:13;96204.19;;;8.42;66.85
61408;BME280;47274;43.054;25.146;2022-10-22T00:45:39;96194.25;;;8.37;65.51
61408;BME280;47274;43.054;25.146;2022-10-22T00:48:11;96192.84;;;8.22;65.88
61408;BME280;47274;43.054;25.146;2022-10-22T00:51:05;96195.06;;;8.15;66.27
61408;BME280;47274;43.054;25.146;2022-10-22T00:53:36;96177.16;;;8.04;66.42
61408;BME280;47274;43.054;25.146;2022-10-22T00:56:04;96187.97;;;8.07;66.68
61408;BME280;47274;43.054;25.146;2022-10-22T00:58:35;96177.97;;;8.04;66.36
61408;BME280;47274;43.054;25.146;2022-10-22T01:01:02;96193.44;;;8.14;66.71
61408;BME280;47274;43.054;25.146;2022-10-22T01:03:28;96188.31;;;8.14;66.97
61408;BME280;47274;43.054;25.146;2022-10-22T01:05:58;96157.63;;;7.92;67.41
61408;BME280;47274;43.054;25.146;2022-10-22T01:08:45;96190.75;;;8.16;67.53
61408;BME280;47274;43.054;25.146;2022-10-22T01:11:22;96182.28;;;8.15;67.60
61408;BME280;47274;43.054;25.146;2022-10-22T01:28:05;96183.66;;;7.97;68.39
61408;BME280;47274;43.054;25.146;2022-10-22T01:30:38;96180.16;;;8.20;65.24
61408;BME280;47274;43.054;25.146;2022-10-22T01:33:08;96147.53;;;8.69;61.55
61408;BME280;47274;43.054;25.146;2022-10-22T01:35:39;96168.16;;;8.99;60.46
61408;BME280;47274;43.054;25.146;2022-10-22T01:38:10;96160.28;;;9.23;57.52
61408;BME280;47274;43.054;25.146;2022-10-22T01:40:38;96172.31;;;9.44;56.83
61408;BME280;47274;43.054;25.146;2022-10-22T01:43:07;96166.09;;;9.58;56.63
61408;BME280;47274;43.054;25.146;2022-10-22T01:45:43;96162.44;;;9.60;56.35
61408;BME280;47274;43.054;25.146;2022-10-22T01:54:11;96157.06;;;9.42;58.81
61408;BME280;47274;43.054;25.146;2022-10-22T02:05:38;96157.06;;;8.33;65.27
61408;BME280;47274;43.054;25.146;2022-10-22T02:08:11;96165.66;;;8.21;65.62
61408;BME280;47274;43.054;25.146;2022-10-22T02:10:41;96145.78;;;8.02;66.31
61408;BME280;47274;43.054;25.146;2022-10-22T02:13:13;96136.59;;;7.88;66.98
61408;BME280;47274;43.054;25.146;2022-10-22T02:15:42;96168.56;;;8.05;67.07
61408;BME280;47274;43.054;25.146;2022-10-22T02:18:11;96168.41;;;7.95;67.36
61408;BME280;47274;43.054;25.146;2022-10-22T02:20:40;96167.47;;;7.85;67.08
61408;BME280;47274;43.054;25.146;2022-10-22T02:23:08;96153.75;;;7.75;67.49
61408;BME280;47274;43.054;25.146;2022-10-22T02:25:39;96147.25;;;7.71;68.04
61408;BME280;47274;43.054;25.146;2022-10-22T02:28:21;96148.13;;;7.58;68.34
61408;BME280;47274;43.054;25.146;2022-10-22T02:30:52;96113.28;;;7.35;68.80
61408;BME280;47274;43.054;25.146;2022-10-22T02:33:33;96154.69;;;7.63;68.60
61408;BME280;47274;43.054;25.146;2022-10-22T02:36:03;96119.06;;;7.37;68.83
61408;BME280;47274;43.054;25.146;2022-10-22T02:38:30;96146.97;;;7.51;68.94
61408;BME280;47274;43.054;25.146;2022-10-22T02:40:57;96151.16;;;7.52;68.65
61408;BME280;47274;43.054;25.146;2022-10-22T02:43:24;96153.56;;;7.43;69.24
61408;BME280;47274;43.054;25.146;2022-10-22T02:45:50;96154.47;;;7.42;69.42
61408;BME280;47274;43.054;25.146;2022-10-22T02:48:16;96141.69;;;7.42;69.38
61408;BME280;47274;43.054;25.146;2022-10-22T02:50:42;96146.13;;;7.40;69.31
61408;BME280;47274;43.054;25.146;2022-10-22T02:53:07;96145.41;;;7.38;69.88
61408;BME280;47274;43.054;25.146;2022-10-22T02:55:33;96152.47;;;7.34;70.11
61408;BME280;47274;43.054;25.146;2022-10-22T02:57:59;96108.44;;;7.08;70.17
61408;BME280;47274;43.054;25.146;2022-10-22T03:00:25;96152.38;;;7.35;69.11
61408;BME280;47274;43.054;25.146;2022-10-22T03:02:50;96135.53;;;7.33;69.17
61408;BME280;47274;43.054;25.146;2022-10-22T03:05:16;96135.53;;;7.33;68.64
61408;BME280;47274;43.054;25.146;2022-10-22T03:07:42;96124.03;;;7.27;68.04
61408;BME280;47274;43.054;25.146;2022-10-22T03:10:08;96126.25;;;7.32;67.95
61408;BME280;47274;43.054;25.146;2022-10-22T03:12:34;96093.22;;;7.06;68.04
61408;BME280;47274;43.054;25.146;2022-10-22T03:15:00;96093.72;;;7.11;68.51
61408;BME280;47274;43.054;25.146;2022-10-22T03:17:25;96111.00;;;7.19;68.18
61408;BME280;47274;43.054;25.146;2022-10-22T03:19:51;96108.44;;;7.08;68.04
61408;BME280;47274;43.054;25.146;2022-10-22T03:22:24;96110.72;;;7.11;68.13
61408;BME280;47274;43.054;25.146;2022-10-22T03:24:53;96123.50;;;7.11;68.42
61408;BME280;47274;43.054;25.146;2022-10-22T03:27:21;96116.41;;;7.03;68.93
61408;BME280;47274;43.054;25.146;2022-10-22T03:29:49;96126.97;;;7.10;68.37
61408;BME280;47274;43.054;25.146;2022-10-22T03:32:16;96116.78;;;7.10;67.86
61408;BME280;47274;43.054;25.146;2022-10-22T03:34:42;96115.63;;;7.14;67.41
61408;BME280;47274;43.054;25.146;2022-10-22T03:37:07;96119.34;;;7.21;67.14
61408;BME280;47274;43.054;25.146;2022-10-22T03:39:35;96118.66;;;7.19;66.26
61408;BME280;47274;43.054;25.146;2022-10-22T03:42:02;96115.19;;;7.20;66.75
61408;BME280;47274;43.054;25.146;2022-10-22T03:44:29;96074.34;;;6.85;67.36
61408;BME280;47274;43.054;25.146;2022-10-22T03:46:55;96088.66;;;6.99;66.88
61408;BME280;47274;43.054;25.146;2022-10-22T03:49:21;96102.41;;;7.20;66.65
61408;BME280;47274;43.054;25.146;2022-10-22T03:51:47;96101.28;;;7.24;65.74
61408;BME280;47274;43.054;25.146;2022-10-22T03:54:14;96097.09;;;7.23;66.36
61408;BME280;47274;43.054;25.146;2022-10-22T03:56:40;96066.88;;;7.06;65.96
61408;BME280;47274;43.054;25.146;2022-10-22T03:59:06;96087.59;;;7.25;66.74
61408;BME280;47274;43.054;25.146;2022-10-22T04:01:32;96089.34;;;7.25;66.86
61408;BME280;47274;43.054;25.146;2022-10-22T04:03:58;96093.06;;;7.32;65.10
61408;BME280;47274;43.054;25.146;2022-10-22T04:06:24;96044.38;;;7.11;65.26
61408;BME280;47274;43.054;25.146;2022-10-22T04:08:49;96076.81;;;7.33;66.36
61408;BME280;47274;43.054;25.146;2022-10-22T04:11:15;96072.19;;;7.38;65.99
61408;BME280;47274;43.054;25.146;2022-10-22T04:13:42;96080.41;;;7.42;66.41
61408;BME280;47274;43.054;25.146;2022-10-22T04:16:13;96083.09;;;7.40;66.75
61408;BME280;47274;43.054;25.146;2022-10-22T04:18:40;96077.41;;;7.48;66.43
61408;BME280;47274;43.054;25.146;2022-10-22T04:21:08;96071.06;;;7.53;64.94
61408;BME280;47274;43.054;25.146;2022-10-22T04:23:34;96062.31;;;7.45;65.89
61408;BME280;47274;43.054;25.146;2022-10-22T04:26:02;96063.13;;;7.45;65.53
61408;BME280;47274;43.054;25.146;2022-10-22T04:28:28;96019.50;;;7.26;63.81
61408;BME280;47274;43.054;25.146;2022-10-22T04:30:54;96003.44;;;7.01;64.44
61408;BME280;47274;43.054;25.146;2022-10-22T04:33:20;96023.16;;;7.10;64.82
61408;BME280;47274;43.054;25.146;2022-10-22T04:35:46;96040.56;;;7.17;64.32
61408;BME280;47274;43.054;25.146;2022-10-22T04:38:13;96056.25;;;7.12;64.11
61408;BME280;47274;43.054;25.146;2022-10-22T04:40:39;96061.66;;;7.07;64.90
61408;BME280;47274;43.054;25.146;2022-10-22T04:43:05;96048.81;;;7.09;65.53
61408;BME280;47274;43.054;25.146;2022-10-22T04:45:35;96050.34;;;7.23;65.80
61408;BME280;47274;43.054;25.146;2022-10-22T04:48:01;96053.94;;;7.31;65.35
61408;BME280;47274;43.054;25.146;2022-10-22T04:50:27;96054.88;;;7.30;65.76
61408;BME280;47274;43.054;25.146;2022-10-22T04:52:53;96057.88;;;7.24;65.67
61408;BME280;47274;43.054;25.146;2022-10-22T04:55:18;96054.28;;;7.27;65.79
61408;BME280;47274;43.054;25.146;2022-10-22T04:57:44;96045.25;;;7.23;64.98
61408;BME280;47274;43.054;25.146;2022-10-22T05:00:10;96055.47;;;7.34;65.65
61408;BME280;47274;43.054;25.146;2022-10-22T05:02:36;96056.19;;;7.36;65.29
61408;BME280;47274;43.054;25.146;2022-10-22T05:05:02;96062.91;;;7.37;66.01
61408;BME280;47274;43.054;25.146;2022-10-22T05:07:28;96051.78;;;7.60;64.91
61408;BME280;47274;43.054;25.146;2022-10-22T05:09:54;96054.34;;;7.94;64.41
61408;BME280;47274;43.054;25.146;2022-10-22T05:12:20;96061.75;;;8.20;63.03
61408;BME280;47274;43.054;25.146;2022-10-22T05:14:46;96060.34;;;8.49;62.77
61408;BME280;47274;43.054;25.146;2022-10-22T05:17:12;96058.88;;;8.68;62.09
61408;BME280;47274;43.054;25.146;2022-10-22T05:19:37;96063.00;;;8.91;60.48
61408;BME280;47274;43.054;25.146;2022-10-22T05:22:04;96075.22;;;9.20;61.03
61408;BME280;47274;43.054;25.146;2022-10-22T05:24:31;96072.91;;;9.38;59.49
61408;BME280;47274;43.054;25.146;2022-10-22T05:26:58;96067.78;;;9.59;59.72
61408;BME280;47274;43.054;25.146;2022-10-22T05:29:25;96086.59;;;10.00;57.33
61408;BME280;47274;43.054;25.146;2022-10-22T05:31:51;96084.97;;;10.29;58.75
61408;BME280;47274;43.054;25.146;2022-10-22T05:34:18;96072.31;;;10.47;56.78
61408;BME280;47274;43.054;25.146;2022-10-22T05:36:44;96070.34;;;10.70;53.92
61408;BME280;47274;43.054;25.146;2022-10-22T05:39:11;96046.41;;;10.89;54.94
61408;BME280;47274;43.054;25.146;2022-10-22T05:41:37;96054.25;;;11.26;54.16
61408;BME280;47274;43.054;25.146;2022-10-22T05:44:04;96065.81;;;11.69;52.74
61408;BME280;47274;43.054;25.146;2022-10-22T05:46:33;96088.22;;;12.24;50.87
61408;BME280;47274;43.054;25.146;2022-10-22T05:49:02;96094.03;;;12.53;50.18
61408;BME280;47274;43.054;25.146;2022-10-22T05:51:31;96099.16;;;12.81;49.98
61408;BME280;47274;43.054;25.146;2022-10-22T05:53:59;96104.88;;;12.75;49.30
61408;BME280;47274;43.054;25.146;2022-10-22T05:56:27;96111.00;;;12.92;49.24
61408;BME280;47274;43.054;25.146;2022-10-22T05:58:53;96110.94;;;13.01;50.37
61408;BME280;47274;43.054;25.146;2022-10-22T06:01:22;96122.03;;;13.02;50.51
61408;BME280;47274;43.054;25.146;2022-10-22T06:03:51;96121.44;;;12.72;51.68
61408;BME280;47274;43.054;25.146;2022-10-22T06:08:50;96130.72;;;12.38;52.13
61408;BME280;47274;43.054;25.146;2022-10-22T06:11:17;96129.25;;;12.25;52.57
61408;BME280;47274;43.054;25.146;2022-10-22T06:13:44;96126.75;;;12.06;53.18
61408;BME280;47274;43.054;25.146;2022-10-22T06:16:11;96142.31;;;12.04;54.04
61408;BME280;47274;43.054;25.146;2022-10-22T06:18:37;96132.22;;;11.93;54.54
61408;BME280;47274;43.054;25.146;2022-10-22T06:21:07;96103.00;;;11.65;53.89
61408;BME280;47274;43.054;25.146;2022-10-22T06:23:34;96137.22;;;11.85;54.04
61408;BME280;47274;43.054;25.146;2022-10-22T06:26:00;96104.50;;;11.58;54.05
61408;BME280;47274;43.054;25.146;2022-10-22T06:28:27;96137.09;;;11.67;51.87
61408;BME280;47274;43.054;25.146;2022-10-22T06:30:53;96144.28;;;11.63;51.65
61408;BME280;47274;43.054;25.146;2022-10-22T06:33:19;96146.84;;;11.63;51.73
61408;BME280;47274;43.054;25.146;2022-10-22T06:35:44;96143.06;;;11.48;51.55
61408;BME280;47274;43.054;25.146;2022-10-22T06:38:13;96134.81;;;11.35;52.98
61408;BME280;47274;43.054;25.146;2022-10-22T06:40:39;96146.59;;;11.18;52.82
61408;BME280;47274;43.054;25.146;2022-10-22T06:43:08;96144.28;;;11.05;50.86
61408;BME280;47274;43.054;25.146;2022-10-22T06:45:34;96147.78;;;10.95;50.89
61408;BME280;47274;43.054;25.146;2022-10-22T06:48:00;96149.69;;;11.02;52.14
61408;BME280;47274;43.054;25.146;2022-10-22T06:50:26;96149.53;;;11.04;52.56
61408;BME280;47274;43.054;25.146;2022-10-22T06:52:52;96145.78;;;10.98;52.16
61408;BME280;47274;43.054;25.146;2022-10-22T06:55:18;96147.50;;;10.88;51.70
61408;BME280;47274;43.054;25.146;2022-10-22T06:57:46;96134.44;;;10.51;52.34
61408;BME280;47274;43.054;25.146;2022-10-22T07:00:12;96104.38;;;10.01;54.13
61408;BME280;47274;43.054;25.146;2022-10-22T07:02:38;96132.81;;;10.40;53.62
61408;BME280;47274;43.054;25.146;2022-10-22T07:05:05;96126.94;;;10.28;53.80
61408;BME280;47274;43.054;25.146;2022-10-22T07:07:31;96137.75;;;10.72;53.76
61408;BME280;47274;43.054;25.146;2022-10-22T07:09:56;96127.53;;;10.41;53.39
61408;BME280;47274;43.054;25.146;2022-10-22T07:12:22;96143.91;;;10.50;53.18
61408;BME280;47274;43.054;25.146;2022-10-22T07:14:48;96141.91;;;10.54;53.79
61408;BME280;47274;43.054;25.146;2022-10-22T07:17:14;96134.44;;;10.20;54.13
61408;BME280;47274;43.054;25.146;2022-10-22T07:19:40;96131.72;;;10.42;54.52
61408;BME280;47274;43.054;25.146;2022-10-22T07:22:06;96142.56;;;10.56;53.24
61408;BME280;47274;43.054;25.146;2022-10-22T07:24:32;96145.00;;;10.57;53.03
61408;BME280;47274;43.054;25.146;2022-10-22T07:26:57;96142.94;;;11.40;51.27
61408;BME280;47274;43.054;25.146;2022-10-22T07:29:23;96136.41;;;12.31;48.59
61408;BME280;47274;43.054;25.146;2022-10-22T07:31:49;96131.69;;;12.82;46.95
61408;BME280;47274;43.054;25.146;2022-10-22T07:34:15;96129.75;;;12.84;47.40
61408;BME280;47274;43.054;25.146;2022-10-22T07:36:41;96139.84;;;12.77;47.44
61408;BME280;47274;43.054;25.146;2022-10-22T07:39:07;96102.84;;;12.51;47.64
61408;BME280;47274;43.054;25.146;2022-10-22T07:41:32;96104.97;;;12.00;48.65
61408;BME280;47274;43.054;25.146;2022-10-22T07:43:58;96128.06;;;12.47;48.92
61408;BME280;47274;43.054;25.146;2022-10-22T07:46:25;96133.56;;;12.62;47.17
61408;BME280;47274;43.054;25.146;2022-10-22T07:48:51;96123.59;;;12.22;48.42
61408;BME280;47274;43.054;25.146;2022-10-22T07:51:17;96117.59;;;12.31;48.97
61408;BME280;47274;43.054;25.146;2022-10-22T07:53:43;96116.75;;;12.30;48.44
61408;BME280;47274;43.054;25.146;2022-10-22T07:56:08;96108.50;;;12.27;48.55
61408;BME280;47274;43.054;25.146;2022-10-22T07:58:34;96111.53;;;12.22;48.71
61408;BME280;47274;43.054;25.146;2022-10-22T08:01:02;96107.63;;;12.18;48.00
61408;BME280;47274;43.054;25.146;2022-10-22T08:03:30;96096.31;;;12.29;49.62
61408;BME280;47274;43.054;25.146;2022-10-22T08:05:56;96094.72;;;12.28;50.17
61408;BME280;47274;43.054;25.146;2022-10-22T08:08:22;96091.53;;;12.06;51.58
61408;BME280;47274;43.054;25.146;2022-10-22T08:10:50;96096.22;;;11.74;51.17
61408;BME280;47274;43.054;25.146;2022-10-22T08:13:19;96109.34;;;11.90;50.33
61408;BME280;47274;43.054;25.146;2022-10-22T08:15:45;96050.13;;;11.62;48.67
61408;BME280;47274;43.054;25.146;2022-10-22T08:18:12;96093.56;;;12.03;49.40
61408;BME280;47274;43.054;25.146;2022-10-22T08:20:38;96101.38;;;12.21;48.96
61408;BME280;47274;43.054;25.146;2022-10-22T08:23:04;96095.75;;;12.63;47.76
61408;BME280;47274;43.054;25.146;2022-10-22T08:25:30;96092.53;;;13.14;45.40
61408;BME280;47274;43.054;25.146;2022-10-22T08:27:56;96100.25;;;13.50;44.49
61408;BME280;47274;43.054;25.146;2022-10-22T08:30:22;96060.44;;;13.44;46.74
61408;BME280;47274;43.054;25.146;2022-10-22T08:32:48;96087.31;;;13.94;46.46
61408;BME280;47274;43.054;25.146;2022-10-22T08:35:14;96086.81;;;13.90;46.82
61408;BME280;47274;43.054;25.146;2022-10-22T08:37:40;96093.22;;;13.78;46.29
61408;BME280;47274;43.054;25.146;2022-10-22T08:40:06;96080.97;;;13.54;45.14
61408;BME280;47274;43.054;25.146;2022-10-22T08:45:34;96084.72;;;13.42;45.87
61408;BME280;47274;43.054;25.146;2022-10-22T08:48:34;96078.22;;;13.56;44.99
61408;BME280;47274;43.054;25.146;2022-10-22T08:51:14;96081.47;;;13.58;43.00
61408;BME280;47274;43.054;25.146;2022-10-22T08:57:04;96060.66;;;14.54;40.05
61408;BME280;47274;43.054;25.146;2022-10-22T08:59:56;96076.53;;;14.75;36.90
61408;BME280;47274;43.054;25.146;2022-10-22T09:07:54;96045.75;;;16.11;36.04
61408;BME280;47274;43.054;25.146;2022-10-22T09:10:24;96059.16;;;16.06;35.14
61408;BME280;47274;43.054;25.146;2022-10-22T09:12:53;96037.03;;;15.96;35.04
61408;BME280;47274;43.054;25.146;2022-10-22T09:15:19;96066.88;;;16.23;34.73
61408;BME280;47274;43.054;25.146;2022-10-22T09:23:30;96060.38;;;16.35;34.11
61408;BME280;47274;43.054;25.146;2022-10-22T09:25:58;96067.81;;;16.69;33.71
61408;BME280;47274;43.054;25.146;2022-10-22T09:28:24;96038.59;;;16.44;34.70
61408;BME280;47274;43.054;25.146;2022-10-22T09:30:50;96056.56;;;17.08;32.40
61408;BME280;47274;43.054;25.146;2022-10-22T09:33:26;96052.03;;;17.63;34.01
61408;BME280;47274;43.054;25.146;2022-10-22T09:35:57;96059.28;;;17.52;32.77
61408;BME280;47274;43.054;25.146;2022-10-22T09:38:29;96054.78;;;17.46;32.95
61408;BME280;47274;43.054;25.146;2022-10-22T09:40:57;96057.81;;;17.88;32.92
61408;BME280;47274;43.054;25.146;2022-10-22T09:43:24;96047.97;;;18.28;32.47
61408;BME280;47274;43.054;25.146;2022-10-22T09:45:59;96054.28;;;18.55;31.33
61408;BME280;47274;43.054;25.146;2022-10-22T09:48:29;96015.59;;;18.81;30.42
61408;BME280;47274;43.054;25.146;2022-10-22T09:51:19;96039.06;;;19.09;31.18
61408;BME280;47274;43.054;25.146;2022-10-22T09:53:58;96045.50;;;19.41;30.81
61408;BME280;47274;43.054;25.146;2022-10-22T09:56:33;96032.56;;;19.48;30.01
61408;BME280;47274;43.054;25.146;2022-10-22T09:59:03;96021.88;;;19.64;32.35
61408;BME280;47274;43.054;25.146;2022-10-22T10:01:34;96025.88;;;20.43;28.47
61408;BME280;47274;43.054;25.146;2022-10-22T10:04:05;96034.41;;;20.24;29.69
61408;BME280;47274;43.054;25.146;2022-10-22T10:06:33;96022.88;;;20.46;29.17
61408;BME280;47274;43.054;25.146;2022-10-22T10:09:00;96005.00;;;20.36;30.24
61408;BME280;47274;43.054;25.146;2022-10-22T10:11:49;96030.03;;;20.79;25.52
61408;BME280;47274;43.054;25.146;2022-10-22T10:18:24;96028.50;;;21.51;25.61
61408;BME280;47274;43.054;25.146;2022-10-22T10:26:55;96020.44;;;20.99;27.24
61408;BME280;47274;43.054;25.146;2022-10-22T10:29:35;96012.56;;;20.73;28.33
61408;BME280;47274;43.054;25.146;2022-10-22T10:32:40;96025.88;;;21.11;29.95
61408;BME280;47274;43.054;25.146;2022-10-22T10:38:13;96023.66;;;21.28;30.42
61408;BME280;47274;43.054;25.146;2022-10-22T10:41:01;96021.03;;;21.21;32.14
61408;BME280;47274;43.054;25.146;2022-10-22T10:48:58;96010.00;;;20.99;31.90
61408;BME280;47274;43.054;25.146;2022-10-22T10:51:41;96006.97;;;20.89;32.06
61408;BME280;47274;43.054;25.146;2022-10-22T11:08:24;95990.94;;;20.86;33.22
61408;BME280;47274;43.054;25.146;2022-10-22T11:11:17;95971.28;;;21.03;33.44
61408;BME280;47274;43.054;25.146;2022-10-22T11:14:02;95978.50;;;21.34;31.90
61408;BME280;47274;43.054;25.146;2022-10-22T11:17:10;95966.41;;;21.53;32.02
61408;BME280;47274;43.054;25.146;2022-10-22T11:25:06;95966.94;;;21.95;32.64
61408;BME280;47274;43.054;25.146;2022-10-22T11:30:33;95961.13;;;21.86;33.33
61408;BME280;47274;43.054;25.146;2022-10-22T11:33:04;95957.53;;;21.74;32.37
61408;BME280;47274;43.054;25.146;2022-10-22T11:35:42;95956.38;;;21.43;33.33
61408;BME280;47274;43.054;25.146;2022-10-22T11:38:16;95948.19;;;21.20;33.94
61408;BME280;47274;43.054;25.146;2022-10-22T11:40:59;95935.13;;;21.06;34.05
61408;BME280;47274;43.054;25.146;2022-10-22T11:51:36;95948.97;;;21.00;34.93
61408;BME280;47274;43.054;25.146;2022-10-22T11:59:59;95937.31;;;20.63;35.74
61408;BME280;47274;43.054;25.146;2022-10-22T12:02:39;95924.63;;;20.47;35.82
61408;BME280;47274;43.054;25.146;2022-10-22T12:07:59;95936.22;;;20.24;35.73
61408;BME280;47274;43.054;25.146;2022-10-22T12:10:34;95929.16;;;20.11;36.10
61408;BME280;47274;43.054;25.146;2022-10-22T12:13:11;95929.31;;;19.97;36.29
61408;BME280;47274;43.054;25.146;2022-10-22T12:16:01;95917.59;;;19.79;36.65
61408;BME280;47274;43.054;25.146;2022-10-22T12:18:40;95916.16;;;19.63;36.96
61408;BME280;47274;43.054;25.146;2022-10-22T12:21:12;95848.75;;;19.06;36.86
61408;BME280;47274;43.054;25.146;2022-10-22T12:23:39;95920.66;;;19.55;36.44
61408;BME280;47274;43.054;25.146;2022-10-22T12:26:05;95916.66;;;19.52;36.55
61408;BME280;47274;43.054;25.146;2022-10-22T12:28:40;95904.44;;;19.53;36.96
61408;BME280;47274;43.054;25.146;2022-10-22T12:31:14;95911.25;;;19.54;35.65
61408;BME280;47274;43.054;25.146;2022-10-22T12:33:41;95908.22;;;19.50;36.38
61408;BME280;47274;43.054;25.146;2022-10-22T12:36:17;95893.75;;;19.41;36.89
61408;BME280;47274;43.054;25.146;2022-10-22T12:38:46;95902.59;;;19.47;33.70
61408;BME280;47274;43.054;25.146;2022-10-22T12:41:13;95878.91;;;19.28;34.00
61408;BME280;47274;43.054;25.146;2022-10-22T12:43:38;95877.28;;;19.27;33.21
61408;BME280;47274;43.054;25.146;2022-10-22T12:46:11;95849.81;;;19.18;32.07
61408;BME280;47274;43.054;25.146;2022-10-22T12:48:43;95888.19;;;19.44;32.59
61408;BME280;47274;43.054;25.146;2022-10-22T12:51:15;95900.63;;;19.55;31.40
61408;BME280;47274;43.054;25.146;2022-10-22T12:53:50;95888.44;;;19.56;32.05
61408;BME280;47274;43.054;25.146;2022-10-22T12:56:25;95886.72;;;19.63;31.57
61408;BME280;47274;43.054;25.146;2022-10-22T12:59:01;95891.75;;;19.71;32.78
61408;BME280;47274;43.054;25.146;2022-10-22T13:01:33;95860.69;;;19.70;33.53
61408;BME280;47274;43.054;25.146;2022-10-22T13:06:47;95887.66;;;20.03;33.77
61408;BME280;47274;43.054;25.146;2022-10-22T13:09:17;95873.22;;;20.07;33.89
61408;BME280;47274;43.054;25.146;2022-10-22T13:12:02;95873.81;;;20.09;33.46
61408;BME280;47274;43.054;25.146;2022-10-22T13:14:37;95864.59;;;20.13;33.08
61408;BME280;47274;43.054;25.146;2022-10-22T13:19:42;95879.44;;;20.13;33.69
61408;BME280;47274;43.054;25.146;2022-10-22T13:24:49;95869.66;;;20.28;34.25
61408;BME280;47274;43.054;25.146;2022-10-22T13:27:18;95859.44;;;20.33;34.64
61408;BME280;47274;43.054;25.146;2022-10-22T13:29:44;95862.44;;;20.37;34.63
61408;BME280;47274;43.054;25.146;2022-10-22T13:32:26;95870.06;;;20.32;33.04
61408;BME280;47274;43.054;25.146;2022-10-22T13:34:55;95859.44;;;20.33;33.98
61408;BME280;47274;43.054;25.146;2022-10-22T13:37:21;95864.06;;;20.38;33.62
61408;BME280;47274;43.054;25.146;2022-10-22T13:39:48;95863.06;;;20.39;34.42
61408;BME280;47274;43.054;25.146;2022-10-22T13:42:13;95864.84;;;20.32;34.78
61408;BME280;47274;43.054;25.146;2022-10-22T13:44:42;95861.81;;;20.15;34.88
61408;BME280;47274;43.054;25.146;2022-10-22T13:47:20;95837.13;;;19.91;34.57
61408;BME280;47274;43.054;25.146;2022-10-22T13:49:48;95852.94;;;19.89;34.76
61408;BME280;47274;43.054;25.146;2022-10-22T13:52:26;95857.34;;;19.89;34.54
61408;BME280;47274;43.054;25.146;2022-10-22T13:54:52;95857.34;;;19.89;35.67
61408;BME280;47274;43.054;25.146;2022-10-22T13:57:18;95851.50;;;19.74;36.21
61408;BME280;47274;43.054;25.146;2022-10-22T13:59:44;95874.84;;;19.60;36.85
61408;BME280;47274;43.054;25.146;2022-10-22T14:02:10;95862.94;;;19.45;37.79
61408;BME280;47274;43.054;25.146;2022-10-22T14:04:39;95862.84;;;19.25;38.28
61408;BME280;47274;43.054;25.146;2022-10-22T14:07:12;95862.78;;;19.11;38.61
61408;BME280;47274;43.054;25.146;2022-10-22T14:09:42;95817.56;;;18.78;38.77
61408;BME280;47274;43.054;25.146;2022-10-22T14:12:15;95850.19;;;18.87;39.18
61408;BME280;47274;43.054;25.146;2022-10-22T14:14:41;95830.47;;;18.71;39.14
61408;BME280;47274;43.054;25.146;2022-10-22T14:17:15;95845.34;;;18.77;39.85
61408;BME280;47274;43.054;25.146;2022-10-22T14:19:44;95831.66;;;18.68;39.50
61408;BME280;47274;43.054;25.146;2022-10-22T14:22:18;95805.56;;;18.55;40.08
61408;BME280;47274;43.054;25.146;2022-10-22T14:24:45;95818.34;;;18.50;38.87
61408;BME280;47274;43.054;25.146;2022-10-22T14:27:13;95847.03;;;18.63;39.30
61408;BME280;47274;43.054;25.146;2022-10-22T14:29:39;95852.34;;;18.55;39.34
61408;BME280;47274;43.054;25.146;2022-10-22T14:32:11;95842.56;;;18.57;38.97
61408;BME280;47274;43.054;25.146;2022-10-22T14:34:38;95846.53;;;18.53;39.91
61408;BME280;47274;43.054;25.146;2022-10-22T14:37:04;95844.44;;;18.42;39.57
61408;BME280;47274;43.054;25.146;2022-10-22T14:39:30;95835.41;;;18.38;39.94
61408;BME280;47274;43.054;25.146;2022-10-22T14:41:57;95813.47;;;18.19;40.67
61408;BME280;47274;43.054;25.146;2022-10-22T14:44:24;95837.78;;;18.33;40.30
61408;BME280;47274;43.054;25.146;2022-10-22T14:46:50;95837.78;;;18.33;40.80
61408;BME280;47274;43.054;25.146;2022-10-22T14:49:21;95837.94;;;18.31;41.49
61408;BME280;47274;43.054;25.146;2022-10-22T14:51:47;95836.72;;;18.27;41.18
61408;BME280;47274;43.054;25.146;2022-10-22T14:54:13;95825.63;;;18.18;40.57
61408;BME280;47274;43.054;25.146;2022-10-22T14:56:39;95839.63;;;18.17;40.75
61408;BME280;47274;43.054;25.146;2022-10-22T14:59:05;95810.25;;;17.95;40.63